Time;durP1;ratioP1;P1;durP2;ratioP2;P2;SDS_P1;SDS_P2;PMS_P1;PMS_P2;Temp;Humidity;BMP_temperature;BMP_pressure;BME280_temperature;BME280_humidity;BME280_pressure;Samples;Min_cycle;Max_cycle;Signal;HPM_P1;HPM_P2
2021/01/08 00:00:48;;;;;;;25.00;12.27;;;2.30;99.90;;;;;;5015210;28;20583;-76
2021/01/08 00:03:13;;;;;;;21.42;14.38;;;2.20;99.90;;;;;;5015551;28;20190;-75
2021/01/08 00:05:39;;;;;;;21.10;14.90;;;2.20;99.90;;;;;;5015026;28;20196;-75
2021/01/08 00:08:05;;;;;;;20.53;14.10;;;2.20;99.90;;;;;;5015309;28;20534;-75
2021/01/08 00:10:31;;;;;;;23.30;16.13;;;2.30;99.90;;;;;;5015325;28;20178;-75
2021/01/08 00:12:57;;;;;;;28.40;16.63;;;2.20;99.90;;;;;;5015177;28;20175;-75
2021/01/08 00:15:23;;;;;;;20.97;14.10;;;2.30;99.90;;;;;;5014641;28;20217;-75
2021/01/08 00:17:48;;;;;;;23.38;15.80;;;2.40;99.90;;;;;;5015029;28;20194;-75
2021/01/08 00:20:14;;;;;;;21.73;15.00;;;2.40;99.90;;;;;;5015216;28;20572;-75
2021/01/08 00:22:40;;;;;;;19.00;12.60;;;2.30;99.90;;;;;;5015161;28;20178;-76
2021/01/08 00:25:06;;;;;;;21.83;11.00;;;2.30;99.90;;;;;;5014615;28;20569;-74
2021/01/08 00:27:31;;;;;;;17.67;13.90;;;2.30;99.90;;;;;;5015048;28;20175;-75
2021/01/08 00:29:57;;;;;;;18.80;13.37;;;2.30;99.90;;;;;;5014937;28;20964;-75
2021/01/08 00:32:23;;;;;;;16.00;10.73;;;2.20;99.90;;;;;;5014812;28;20179;-75
2021/01/08 00:34:48;;;;;;;20.73;14.80;;;2.20;99.90;;;;;;5014299;28;20665;-75
2021/01/08 00:37:15;;;;;;;20.40;13.50;;;2.30;99.90;;;;;;5014122;28;20175;-76
2021/01/08 00:39:41;;;;;;;21.52;15.07;;;2.20;99.90;;;;;;5014919;28;20461;-75
2021/01/08 00:42:07;;;;;;;24.75;14.75;;;2.20;99.90;;;;;;5014874;28;20759;-75
2021/01/08 00:44:33;;;;;;;19.85;11.30;;;2.20;99.90;;;;;;5014269;28;20342;-75
2021/01/08 00:46:58;;;;;;;18.13;12.57;;;2.10;99.90;;;;;;5014799;28;20624;-75
2021/01/08 00:49:25;;;;;;;23.40;14.97;;;2.10;99.90;;;;;;5014524;28;20675;-75
2021/01/08 00:51:52;;;;;;;16.90;12.18;;;2.10;99.90;;;;;;5014501;28;20179;-75
2021/01/08 00:54:18;;;;;;;17.25;12.43;;;2.10;99.90;;;;;;5013980;28;20202;-76
2021/01/08 00:56:43;;;;;;;20.03;13.57;;;2.20;99.90;;;;;;5014451;28;20191;-75
2021/01/08 00:59:09;;;;;;;15.50;12.20;;;2.20;99.90;;;;;;5014098;28;20197;-76
2021/01/08 01:01:35;;;;;;;16.17;11.83;;;2.10;99.90;;;;;;5014276;28;20249;-75
2021/01/08 01:04:00;;;;;;;15.97;10.90;;;2.10;99.90;;;;;;5013967;28;20656;-75
2021/01/08 01:06:30;;;;;;;19.57;13.60;;;2.20;99.90;;;;;;5013095;28;20253;-76
2021/01/08 01:08:57;;;;;;;20.50;15.10;;;2.20;99.90;;;;;;5013499;28;20266;-76
2021/01/08 01:11:24;;;;;;;16.48;10.90;;;2.10;99.90;;;;;;5014237;28;20179;-76
2021/01/08 01:13:51;;;;;;;15.65;10.73;;;2.10;99.90;;;;;;5013920;28;20256;-75
2021/01/08 01:16:20;;;;;;;20.75;13.32;;;2.10;99.90;;;;;;5014136;28;20275;-75
2021/01/08 01:18:47;;;;;;;16.95;11.88;;;2.10;99.90;;;;;;5014042;28;20584;-75
2021/01/08 01:21:13;;;;;;;21.20;13.40;;;2.00;99.90;;;;;;5013988;28;20250;-76
2021/01/08 01:23:39;;;;;;;14.60;10.82;;;2.00;99.90;;;;;;5013668;28;20180;-76
2021/01/08 01:26:05;;;;;;;18.20;13.33;;;2.00;99.90;;;;;;5013976;28;20214;-76
2021/01/08 01:28:31;;;;;;;17.45;11.32;;;2.00;99.90;;;;;;5014073;28;20186;-76
2021/01/08 01:30:57;;;;;;;19.98;13.38;;;2.00;99.90;;;;;;5014134;28;20179;-76
2021/01/08 01:33:23;;;;;;;22.27;14.32;;;1.90;99.90;;;;;;5013940;28;20206;-76
2021/01/08 01:35:50;;;;;;;21.80;15.17;;;1.90;99.90;;;;;;5013665;28;20230;-76
2021/01/08 01:38:15;;;;;;;16.70;12.10;;;1.90;99.90;;;;;;5013903;28;20209;-75
2021/01/08 01:40:41;;;;;;;23.73;15.33;;;1.90;99.90;;;;;;5013806;28;20571;-75
2021/01/08 01:43:07;;;;;;;18.77;13.07;;;1.90;99.90;;;;;;5013684;28;20682;-75
2021/01/08 01:45:32;;;;;;;18.10;12.77;;;1.90;99.90;;;;;;5013299;28;20285;-76
2021/01/08 01:47:58;;;;;;;22.63;15.13;;;1.80;99.90;;;;;;5013466;28;20205;-75
2021/01/08 01:50:25;;;;;;;18.70;13.40;;;1.80;99.90;;;;;;5013077;28;20203;-76
2021/01/08 01:52:51;;;;;;;17.65;13.38;;;1.70;99.90;;;;;;5013629;28;20268;-76
2021/01/08 01:55:16;;;;;;;18.93;13.67;;;1.60;99.90;;;;;;5013179;28;20276;-75
2021/01/08 01:57:42;;;;;;;22.70;15.00;;;1.70;99.90;;;;;;5013384;28;20183;-76
2021/01/08 02:00:08;;;;;;;14.63;10.93;;;1.80;99.90;;;;;;5013460;28;20313;-76
2021/01/08 02:02:39;;;;;;;20.08;14.63;;;1.70;99.90;;;;;;5013456;28;20171;-75
2021/01/08 02:05:07;;;;;;;18.73;13.93;;;1.80;99.90;;;;;;5013115;28;20209;-75
2021/01/08 02:07:37;;;;;;;19.15;13.68;;;1.70;99.90;;;;;;5013449;28;20172;-76
2021/01/08 02:10:05;;;;;;;17.95;13.75;;;1.80;99.90;;;;;;5013428;28;20185;-76
2021/01/08 02:12:34;;;;;;;17.85;12.15;;;1.70;99.90;;;;;;5013381;28;20175;-75
2021/01/08 02:15:02;;;;;;;23.38;13.43;;;1.60;99.90;;;;;;5012956;28;20642;-76
2021/01/08 02:17:28;;;;;;;18.70;13.23;;;1.50;99.90;;;;;;5013601;28;20190;-76
2021/01/08 02:20:05;;;;;;;19.80;13.70;;;1.60;99.90;;;;;;5013211;28;20212;-75
2021/01/08 02:23:06;;;;;;;18.30;14.00;;;1.50;99.90;;;;;;5013570;28;20163;-76
2021/01/08 02:25:33;;;;;;;19.10;13.15;;;1.60;99.90;;;;;;5013389;28;20194;-77
2021/01/08 02:28:05;;;;;;;20.02;13.95;;;1.60;99.90;;;;;;5013205;28;20254;-75
2021/01/08 02:30:32;;;;;;;18.23;13.55;;;1.60;99.90;;;;;;5013422;28;20222;-75
2021/01/08 02:32:58;;;;;;;16.55;12.27;;;1.60;99.90;;;;;;5013179;28;20189;-75
2021/01/08 02:35:24;;;;;;;19.50;14.77;;;1.70;99.90;;;;;;5012762;28;20553;-75
2021/01/08 02:37:51;;;;;;;18.13;13.43;;;1.70;99.90;;;;;;5013144;28;20179;-76
2021/01/08 02:40:17;;;;;;;20.73;14.57;;;1.70;99.90;;;;;;5013069;28;20455;-76
2021/01/08 02:42:46;;;;;;;18.02;13.70;;;1.70;99.90;;;;;;5013200;28;20268;-76
2021/01/08 02:45:14;;;;;;;17.50;11.50;;;1.60;99.90;;;;;;5012836;28;20256;-75
2021/01/08 02:47:39;;;;;;;17.80;12.57;;;1.50;99.90;;;;;;5013175;28;20579;-76
2021/01/08 02:50:06;;;;;;;15.47;11.27;;;1.50;99.90;;;;;;5013042;28;20187;-76
2021/01/08 02:52:35;;;;;;;14.95;11.38;;;1.40;99.90;;;;;;5013123;28;20187;-76
2021/01/08 02:55:04;;;;;;;16.83;13.27;;;1.40;99.90;;;;;;5012710;28;20584;-76
2021/01/08 02:57:30;;;;;;;14.65;12.18;;;1.40;99.90;;;;;;5013052;28;20184;-76
2021/01/08 02:59:57;;;;;;;16.45;12.45;;;1.30;99.90;;;;;;5012126;28;20228;-76
2021/01/08 03:02:24;;;;;;;18.33;13.05;;;1.30;99.90;;;;;;5015308;28;20278;-76
2021/01/08 03:04:50;;;;;;;14.15;11.85;;;1.40;99.90;;;;;;5016321;28;20670;-76
2021/01/08 03:07:21;;;;;;;15.52;11.18;;;1.30;99.90;;;;;;5016426;28;20213;-76
2021/01/08 03:09:47;;;;;;;10.30;8.82;;;1.30;99.90;;;;;;5016484;28;20186;-76
2021/01/08 03:12:14;;;;;;;18.83;13.82;;;1.30;99.90;;;;;;5016463;28;20187;-76
2021/01/08 03:14:46;;;;;;;14.45;11.48;;;1.20;99.90;;;;;;5016127;28;20244;-76
2021/01/08 03:17:13;;;;;;;15.80;12.13;;;1.20;99.90;;;;;;5016443;28;20214;-75
2021/01/08 03:19:39;;;;;;;17.20;13.45;;;1.30;99.90;;;;;;5016331;28;20206;-75
2021/01/08 03:22:05;;;;;;;15.68;12.85;;;1.40;99.90;;;;;;5016143;28;20171;-76
2021/01/08 03:24:31;;;;;;;17.93;13.37;;;1.30;99.90;;;;;;5015867;28;20201;-76
2021/01/08 03:26:57;;;;;;;21.73;15.80;;;1.40;99.90;;;;;;5016173;28;20892;-76
2021/01/08 03:29:22;;;;;;;16.77;13.10;;;1.20;99.90;;;;;;5016105;28;20249;-76
2021/01/08 03:31:48;;;;;;;18.40;14.70;;;1.30;99.90;;;;;;5016141;28;20544;-76
2021/01/08 03:34:14;;;;;;;18.63;14.00;;;1.20;99.90;;;;;;5014819;28;20321;-77
2021/01/08 03:36:40;;;;;;;17.63;13.23;;;1.20;99.90;;;;;;5015922;28;20511;-76
2021/01/08 03:39:05;;;;;;;18.30;14.03;;;1.20;99.90;;;;;;5016097;28;20261;-76
2021/01/08 03:41:31;;;;;;;20.90;16.07;;;1.20;99.90;;;;;;5016080;28;20949;-76
2021/01/08 03:43:56;;;;;;;15.60;11.17;;;1.30;99.90;;;;;;5015465;28;20176;-75
2021/01/08 03:46:22;;;;;;;22.90;14.50;;;1.20;99.90;;;;;;5015792;28;20233;-76
2021/01/08 03:48:48;;;;;;;12.23;9.10;;;1.20;99.90;;;;;;5015708;28;20230;-75
2021/01/08 03:51:13;;;;;;;21.43;15.33;;;1.30;99.90;;;;;;5015760;28;20270;-76
2021/01/08 03:53:39;;;;;;;16.80;13.27;;;1.20;99.90;;;;;;5015483;28;20536;-75
2021/01/08 03:56:05;;;;;;;11.43;8.87;;;1.10;99.90;;;;;;5015511;28;20194;-76
2021/01/08 03:58:30;;;;;;;15.50;11.90;;;1.10;99.90;;;;;;5015365;28;20205;-76
2021/01/08 04:00:56;;;;;;;19.33;15.43;;;1.10;99.90;;;;;;5014131;28;20480;-75
2021/01/08 04:03:22;;;;;;;20.67;15.17;;;1.20;99.90;;;;;;5015324;28;20440;-78
2021/01/08 04:05:47;;;;;;;21.10;16.10;;;1.20;99.90;;;;;;5015105;28;20565;-75
2021/01/08 04:08:13;;;;;;;21.37;15.43;;;1.30;99.90;;;;;;5015309;28;20580;-76
2021/01/08 04:10:39;;;;;;;18.17;12.87;;;1.20;99.90;;;;;;5015239;28;20167;-76
2021/01/08 04:13:04;;;;;;;22.20;14.50;;;1.30;99.90;;;;;;5014289;28;20189;-75
2021/01/08 04:15:30;;;;;;;22.37;16.60;;;1.30;99.90;;;;;;5014897;28;20494;-75
2021/01/08 04:17:56;;;;;;;21.87;15.83;;;1.40;99.90;;;;;;5015309;28;20175;-76
2021/01/08 04:20:22;;;;;;;21.37;14.60;;;1.20;99.90;;;;;;5015047;28;20249;-75
2021/01/08 04:22:47;;;;;;;20.83;16.10;;;1.30;99.90;;;;;;5015075;28;20182;-76
2021/01/08 04:25:13;;;;;;;19.97;15.60;;;1.30;99.90;;;;;;5014725;28;20531;-75
2021/01/08 04:27:39;;;;;;;17.73;11.83;;;1.30;99.90;;;;;;5015230;28;20186;-75
2021/01/08 04:30:06;;;;;;;22.00;15.98;;;1.10;99.90;;;;;;5015175;28;20171;-76
2021/01/08 04:32:32;;;;;;;18.98;12.75;;;1.10;99.90;;;;;;5014766;28;20182;-76
2021/01/08 04:34:58;;;;;;;23.90;17.60;;;1.00;99.90;;;;;;5014546;28;20253;-76
2021/01/08 04:37:23;;;;;;;21.67;15.55;;;1.00;99.90;;;;;;5014927;28;20209;-75
2021/01/08 04:39:49;;;;;;;23.43;17.33;;;1.00;99.90;;;;;;5014857;28;20266;-76
2021/01/08 04:42:15;;;;;;;20.30;15.23;;;1.10;99.90;;;;;;5014794;28;20210;-76
2021/01/08 04:44:41;;;;;;;19.30;13.95;;;1.00;99.90;;;;;;5014342;28;20730;-77
2021/01/08 04:47:11;;;;;;;21.23;15.23;;;1.00;99.90;;;;;;5014589;28;20633;-76
2021/01/08 04:49:38;;;;;;;19.73;15.25;;;1.20;99.90;;;;;;5015037;28;20221;-76
2021/01/08 04:52:09;;;;;;;20.98;15.60;;;1.10;99.90;;;;;;5014675;28;20261;-76
2021/01/08 04:54:35;;;;;;;21.98;14.95;;;1.10;99.90;;;;;;5014178;28;20278;-76
2021/01/08 04:57:03;;;;;;;20.13;15.40;;;1.10;99.90;;;;;;5014436;28;20202;-77
2021/01/08 04:59:29;;;;;;;20.95;14.93;;;1.10;99.90;;;;;;5014370;28;20291;-76
2021/01/08 05:01:55;;;;;;;23.17;16.77;;;1.00;99.90;;;;;;5013122;28;20170;-76
2021/01/08 05:04:21;;;;;;;17.00;13.40;;;0.80;99.90;;;;;;5013949;28;20195;-77
2021/01/08 05:06:47;;;;;;;21.38;15.57;;;0.80;99.90;;;;;;5014234;28;20171;-77
2021/01/08 05:09:13;;;;;;;20.67;15.07;;;0.90;99.90;;;;;;5014063;28;20178;-77
2021/01/08 05:11:39;;;;;;;19.97;14.90;;;0.70;99.90;;;;;;5014256;28;20635;-77
2021/01/08 05:14:08;;;;;;;22.50;16.80;;;0.80;99.90;;;;;;5013832;28;20195;-77
2021/01/08 05:16:33;;;;;;;21.50;15.55;;;0.80;99.90;;;;;;5014272;28;20195;-77
2021/01/08 05:19:01;;;;;;;23.57;15.70;;;0.90;99.90;;;;;;5014141;28;20195;-77
2021/01/08 05:21:28;;;;;;;23.92;15.65;;;0.90;99.90;;;;;;5014137;28;20195;-77
2021/01/08 05:23:55;;;;;;;18.42;14.05;;;0.80;99.90;;;;;;5013415;28;20526;-77
2021/01/08 05:26:22;;;;;;;20.35;15.05;;;0.90;99.90;;;;;;5014144;28;20225;-77
2021/01/08 05:28:50;;;;;;;21.25;16.65;;;1.00;99.90;;;;;;5014157;28;20262;-77
2021/01/08 05:31:16;;;;;;;20.42;15.27;;;0.80;99.90;;;;;;5013684;28;20185;-77
2021/01/08 05:33:42;;;;;;;21.73;15.95;;;0.70;99.90;;;;;;5013632;28;20598;-77
2021/01/08 05:36:11;;;;;;;19.70;15.10;;;0.80;99.90;;;;;;5013872;28;20588;-77
2021/01/08 05:38:40;;;;;;;19.85;14.80;;;0.80;99.90;;;;;;5013931;28;20643;-77
2021/01/08 05:41:07;;;;;;;19.08;13.77;;;0.80;99.90;;;;;;5013746;28;20240;-77
2021/01/08 05:43:33;;;;;;;18.42;13.60;;;0.90;99.90;;;;;;5013429;28;20178;-76
2021/01/08 05:46:19;;;;;;;19.10;15.20;;;0.90;99.90;;;;;;5012668;28;20675;-77
2021/01/08 05:48:53;;;;;;;17.42;13.38;;;0.90;99.90;;;;;;5013749;28;20406;-77
2021/01/08 05:51:22;;;;;;;20.30;16.40;;;0.80;99.90;;;;;;5013626;28;20532;-77
2021/01/08 05:53:49;;;;;;;21.75;14.30;;;0.80;99.90;;;;;;5013177;28;20265;-77
2021/01/08 05:56:19;;;;;;;18.42;14.88;;;0.80;99.90;;;;;;5013532;28;20175;-77
2021/01/08 05:58:46;;;;;;;22.38;16.38;;;0.80;99.90;;;;;;5013518;28;20198;-77
2021/01/08 06:01:13;;;;;;;22.23;16.50;;;0.80;99.90;;;;;;5013383;28;20180;-78
2021/01/08 06:03:40;;;;;;;22.13;16.15;;;0.90;99.90;;;;;;5013012;28;20171;-78
2021/01/08 06:06:06;;;;;;;22.17;16.98;;;0.90;99.90;;;;;;5012211;28;20698;-77
2021/01/08 06:08:37;;;;;;;25.17;16.00;;;0.90;99.90;;;;;;5013383;28;20275;-77
2021/01/08 06:11:07;;;;;;;26.17;16.13;;;0.80;99.90;;;;;;5013524;28;20180;-77
2021/01/08 06:13:35;;;;;;;21.80;16.40;;;0.80;99.90;;;;;;5013044;28;20261;-77
2021/01/08 06:16:02;;;;;;;23.85;16.83;;;0.90;99.90;;;;;;5013235;28;20242;-75
2021/01/08 06:18:29;;;;;;;22.17;16.60;;;0.80;99.90;;;;;;5013355;28;20556;-77
2021/01/08 06:21:06;;;;;;;20.95;15.50;;;0.80;99.90;;;;;;5013495;28;20199;-75
2021/01/08 06:23:48;;;;;;;21.48;15.60;;;0.90;99.90;;;;;;5012977;28;20257;-78
2021/01/08 06:26:14;;;;;;;22.52;16.92;;;1.00;99.90;;;;;;5013272;28;20171;-75
2021/01/08 06:28:50;;;;;;;21.45;15.52;;;0.90;99.90;;;;;;5013405;28;20265;-75
2021/01/08 06:31:21;;;;;;;23.45;16.67;;;0.80;99.90;;;;;;5013477;28;20808;-75
2021/01/08 06:33:54;;;;;;;23.27;16.60;;;0.70;99.90;;;;;;5012734;28;20209;-75
2021/01/08 06:36:23;;;;;;;20.02;15.43;;;0.80;99.90;;;;;;5015973;28;20181;-77
2021/01/08 06:38:52;;;;;;;20.90;15.82;;;1.00;99.90;;;;;;5017178;28;20256;-77
2021/01/08 06:41:17;;;;;;;24.38;17.17;;;0.90;99.90;;;;;;5017216;28;20214;-77
2021/01/08 06:43:47;;;;;;;21.63;16.30;;;0.80;99.90;;;;;;5016655;28;20207;-75
2021/01/08 06:46:37;;;;;;;21.13;15.98;;;0.90;99.90;;;;;;5016886;28;20409;-77
2021/01/08 06:49:10;;;;;;;26.40;15.82;;;0.90;99.90;;;;;;5016887;28;20651;-75
2021/01/08 06:51:38;;;;;;;21.80;16.40;;;0.90;99.90;;;;;;5016908;28;20241;-76
2021/01/08 06:54:06;;;;;;;19.10;14.93;;;1.00;99.90;;;;;;5016364;28;20546;-75
2021/01/08 06:56:33;;;;;;;24.77;15.48;;;1.10;99.90;;;;;;5016745;28;20182;-75
2021/01/08 06:59:00;;;;;;;20.95;14.77;;;0.90;99.90;;;;;;5016645;28;20199;-77
2021/01/08 07:01:43;;;;;;;20.98;15.70;;;1.00;99.90;;;;;;5016637;28;20185;-75
2021/01/08 07:04:12;;;;;;;22.02;15.43;;;1.00;99.90;;;;;;5016086;28;20186;-78
2021/01/08 07:06:39;;;;;;;18.60;14.55;;;1.00;99.90;;;;;;5016470;28;20543;-77
2021/01/08 07:09:06;;;;;;;23.58;15.57;;;1.00;99.90;;;;;;5015177;28;20633;-75
2021/01/08 07:11:33;;;;;;;19.50;15.18;;;1.10;99.90;;;;;;5015093;28;20329;-75
2021/01/08 07:14:13;;;;;;;19.40;15.52;;;1.00;99.90;;;;;;5015853;28;20644;-77
2021/01/08 07:16:43;;;;;;;21.05;14.90;;;1.00;99.90;;;;;;5016287;28;20206;-76
2021/01/08 07:19:11;;;;;;;17.58;14.10;;;1.00;99.90;;;;;;5016170;28;20207;-76
2021/01/08 07:21:42;;;;;;;19.00;14.50;;;1.00;99.90;;;;;;5016517;28;20179;-80
2021/01/08 07:24:11;;;;;;;18.33;13.65;;;1.00;99.90;;;;;;5015729;28;20200;-79
2021/01/08 07:26:37;;;;;;;19.58;14.13;;;1.10;99.90;;;;;;5016330;28;20179;-76
2021/01/08 07:29:04;;;;;;;18.13;15.05;;;1.10;99.90;;;;;;5016186;28;20183;-76
2021/01/08 07:31:32;;;;;;;17.40;14.05;;;1.20;99.90;;;;;;5016008;28;20172;-76
2021/01/08 07:34:00;;;;;;;17.05;13.00;;;1.20;99.90;;;;;;5015622;28;20171;-76
2021/01/08 07:36:27;;;;;;;17.88;13.75;;;1.20;99.90;;;;;;5012501;28;20231;-75
2021/01/08 07:38:53;;;;;;;14.68;13.00;;;1.10;99.90;;;;;;5010686;28;20241;-77
2021/01/08 07:41:48;;;;;;;16.42;12.93;;;1.10;99.90;;;;;;5014693;28;20225;-75
2021/01/08 07:44:32;;;;;;;14.05;11.65;;;1.20;99.90;;;;;;5004838;28;20210;-74
2021/01/08 07:46:58;;;;;;;16.33;13.73;;;1.30;99.90;;;;;;5009505;28;20644;-76
2021/01/08 07:49:27;;;;;;;22.55;17.23;;;1.20;99.90;;;;;;5012342;28;20434;-75
2021/01/08 07:51:54;;;;;;;16.35;13.73;;;1.30;99.90;;;;;;5013808;28;20903;-74
2021/01/08 07:54:53;;;;;;;17.48;13.63;;;1.40;99.90;;;;;;5012585;28;20604;-73
2021/01/08 07:57:19;;;;;;;18.00;12.68;;;1.50;99.90;;;;;;5013736;28;20182;-73
2021/01/08 07:59:44;;;;;;;18.58;13.65;;;1.40;99.90;;;;;;5013570;28;20427;-74
2021/01/08 08:02:10;;;;;;;15.27;12.93;;;1.40;99.90;;;;;;5012607;28;20225;-74
2021/01/08 08:04:37;;;;;;;16.30;12.90;;;1.40;99.90;;;;;;5023139;28;20218;-76
2021/01/08 08:07:03;;;;;;;16.67;12.90;;;1.30;99.90;;;;;;5032130;28;20174;-75
2021/01/08 08:09:29;;;;;;;18.35;13.93;;;1.30;99.90;;;;;;5032237;28;20170;-75
2021/01/08 08:11:55;;;;;;;19.13;13.83;;;1.40;99.90;;;;;;5031976;28;20594;-75
2021/01/08 08:14:24;;;;;;;17.30;14.15;;;1.30;99.90;;;;;;5031965;28;20482;-76
2021/01/08 08:16:50;;;;;;;15.95;12.32;;;1.30;99.90;;;;;;5032744;28;20245;-76
2021/01/08 08:19:17;;;;;;;18.25;13.45;;;1.10;99.90;;;;;;5032611;28;20194;-75
2021/01/08 08:21:50;;;;;;;23.17;13.07;;;1.00;99.90;;;;;;5033262;28;20208;-75
2021/01/08 08:24:17;;;;;;;14.38;12.18;;;1.10;99.90;;;;;;5033140;28;20610;-75
2021/01/08 08:26:45;;;;;;;17.95;14.18;;;1.10;99.90;;;;;;5032610;28;20179;-74
2021/01/08 08:29:13;;;;;;;18.90;14.30;;;1.30;99.90;;;;;;5033362;28;20233;-75
2021/01/08 08:31:46;;;;;;;27.63;20.73;;;1.20;99.90;;;;;;5033119;28;20194;-77
2021/01/08 08:34:14;;;;;;;20.35;16.23;;;1.20;99.90;;;;;;5032310;28;20203;-75
2021/01/08 08:36:40;;;;;;;22.92;17.55;;;1.20;99.90;;;;;;5027989;28;20187;-76
2021/01/08 08:39:13;;;;;;;22.50;18.70;;;1.10;99.90;;;;;;5012083;28;20209;-76
2021/01/08 08:41:42;;;;;;;18.27;14.25;;;1.00;99.90;;;;;;5012807;28;20414;-76
2021/01/08 08:44:18;;;;;;;20.05;15.05;;;1.00;99.90;;;;;;5012608;28;20274;-76
2021/01/08 08:46:55;;;;;;;23.75;14.73;;;1.00;99.90;;;;;;5013207;28;20269;-75
2021/01/08 08:49:31;;;;;;;17.67;13.95;;;1.10;99.90;;;;;;5012054;28;20610;-76
2021/01/08 08:51:57;;;;;;;25.55;19.08;;;1.00;99.90;;;;;;5012938;28;20180;-75
2021/01/08 08:54:24;;;;;;;22.63;18.17;;;1.00;99.90;;;;;;5012120;28;20679;-76
2021/01/08 08:56:57;;;;;;;22.95;15.43;;;0.90;99.90;;;;;;5012172;28;20427;-75
2021/01/08 08:59:39;;;;;;;29.50;20.00;;;0.90;99.90;;;;;;5012201;28;20750;-77
2021/01/08 09:02:06;;;;;;;23.50;17.85;;;1.00;99.90;;;;;;5012830;28;20212;-76
2021/01/08 09:04:32;;;;;;;20.40;14.75;;;1.10;99.90;;;;;;5011580;28;20710;-75
2021/01/08 09:07:02;;;;;;;20.50;14.30;;;1.10;99.90;;;;;;5012874;28;20214;-75
2021/01/08 09:09:34;;;;;;;23.25;16.08;;;1.10;99.90;;;;;;5011423;28;20281;-75
2021/01/08 09:12:34;;;;;;;26.50;18.20;;;1.10;99.90;;;;;;5012058;28;20215;-75
2021/01/08 09:15:09;;;;;;;24.55;16.50;;;1.20;99.90;;;;;;5012276;28;20224;-76
2021/01/08 09:17:40;;;;;;;28.23;17.50;;;1.20;99.90;;;;;;5012396;28;20185;-75
2021/01/08 09:20:12;;;;;;;26.17;16.95;;;1.30;99.90;;;;;;5012094;28;20196;-75
2021/01/08 09:22:38;;;;;;;22.98;15.13;;;1.20;99.90;;;;;;5012610;28;20618;-75
2021/01/08 09:25:05;;;;;;;23.17;16.17;;;1.30;99.90;;;;;;5012125;28;20191;-75
2021/01/08 09:27:31;;;;;;;27.13;16.48;;;1.30;99.90;;;;;;5010427;28;20194;-76
2021/01/08 09:30:09;;;;;;;30.80;15.87;;;1.30;99.90;;;;;;5012758;28;20175;-76
2021/01/08 09:32:36;;;;;;;27.45;17.63;;;1.40;99.90;;;;;;5011196;28;20277;-75
2021/01/08 09:35:04;;;;;;;29.88;18.08;;;1.50;99.90;;;;;;5011656;28;20302;-76
2021/01/08 09:37:37;;;;;;;28.42;18.95;;;1.40;99.90;;;;;;5010460;28;20179;-75
2021/01/08 09:40:17;;;;;;;26.08;18.73;;;1.50;99.90;;;;;;5011443;28;20230;-74
2021/01/08 09:42:43;;;;;;;27.80;18.83;;;1.50;99.90;;;;;;5010972;28;20675;-75
2021/01/08 09:45:16;;;;;;;28.50;19.02;;;1.40;99.90;;;;;;5010379;28;20672;-75
2021/01/08 09:47:42;;;;;;;32.22;21.63;;;1.50;99.90;;;;;;5011587;28;20175;-75
2021/01/08 09:50:08;;;;;;;27.27;18.00;;;1.40;99.90;;;;;;5010794;28;20183;-75
2021/01/08 09:52:34;;;;;;;24.67;17.60;;;1.40;99.90;;;;;;5012291;28;20183;-75
2021/01/08 09:54:59;;;;;;;25.07;17.87;;;1.30;99.90;;;;;;5011471;28;20202;-77
2021/01/08 09:57:35;;;;;;;26.97;18.30;;;1.50;99.90;;;;;;5010354;28;20757;-76
2021/01/08 10:00:07;;;;;;;28.45;19.65;;;1.50;99.90;;;;;;5011551;28;20297;-75
2021/01/08 10:02:35;;;;;;;26.13;19.08;;;1.50;99.90;;;;;;5011628;28;20213;-75
2021/01/08 10:05:01;;;;;;;25.23;18.50;;;1.50;99.90;;;;;;5009967;28;20694;-75
2021/01/08 10:07:39;;;;;;;29.58;18.55;;;1.70;99.90;;;;;;5012131;28;20184;-74
2021/01/08 10:10:05;;;;;;;27.25;19.63;;;1.80;99.90;;;;;;5012019;28;20277;-75
2021/01/08 10:12:44;;;;;;;26.67;19.02;;;1.70;99.90;;;;;;5016095;28;20196;-76
2021/01/08 10:15:11;;;;;;;29.83;19.15;;;1.80;99.90;;;;;;4997439;28;20218;-75
2021/01/08 10:17:57;;;;;;;29.45;17.75;;;2.00;99.90;;;;;;4998165;28;20180;-74
2021/01/08 10:20:25;;;;;;;29.77;17.83;;;1.80;99.90;;;;;;4997611;28;20220;-75
2021/01/08 10:22:52;;;;;;;32.20;20.55;;;1.80;99.90;;;;;;4997953;28;20179;-74
2021/01/08 10:25:30;;;;;;;26.42;18.38;;;1.70;99.90;;;;;;4997567;28;20569;-74
2021/01/08 10:28:17;;;;;;;25.40;16.85;;;1.70;99.90;;;;;;4997989;28;20576;-74
2021/01/08 10:30:43;;;;;;;27.08;16.45;;;1.60;99.90;;;;;;4997571;28;20246;-74
2021/01/08 10:33:09;;;;;;;28.95;17.17;;;1.70;99.90;;;;;;4995124;28;20260;-76
2021/01/08 10:35:36;;;;;;;24.00;16.98;;;1.70;99.90;;;;;;4993514;28;20637;-74
2021/01/08 10:38:02;;;;;;;27.15;18.80;;;1.70;99.90;;;;;;4996073;28;20180;-74
2021/01/08 10:40:28;;;;;;;26.80;18.38;;;1.70;99.90;;;;;;5012147;28;20298;-74
2021/01/08 10:42:54;;;;;;;26.67;18.50;;;1.80;99.90;;;;;;5015461;28;20283;-75
2021/01/08 10:45:19;;;;;;;30.23;18.57;;;1.70;99.90;;;;;;5014537;28;20199;-74
2021/01/08 10:47:45;;;;;;;27.80;19.23;;;1.80;99.90;;;;;;5014829;28;20184;-74
2021/01/08 10:50:12;;;;;;;31.00;18.45;;;1.80;99.90;;;;;;5014968;28;20189;-75
2021/01/08 10:52:38;;;;;;;27.63;17.33;;;2.00;99.90;;;;;;5015478;28;20183;-74
2021/01/08 10:55:05;;;;;;;29.08;18.65;;;1.90;99.90;;;;;;5013975;28;20203;-74
2021/01/08 10:57:31;;;;;;;28.05;20.20;;;2.00;99.90;;;;;;5015179;28;20207;-75
2021/01/08 10:59:57;;;;;;;29.05;17.95;;;2.10;99.90;;;;;;5014900;28;20211;-76
2021/01/08 11:02:23;;;;;;;33.00;20.40;;;2.20;99.90;;;;;;5014851;28;20399;-74
2021/01/08 11:04:48;;;;;;;29.80;18.37;;;2.20;99.90;;;;;;5014893;28;20198;-79
2021/01/08 11:07:14;;;;;;;29.27;18.53;;;2.00;99.90;;;;;;5014422;28;20187;-74
2021/01/08 11:09:39;;;;;;;29.87;19.57;;;2.00;99.90;;;;;;5014251;28;20665;-77
2021/01/08 11:12:05;;;;;;;23.80;15.47;;;2.00;99.90;;;;;;5014767;28;20237;-75
2021/01/08 11:14:32;;;;;;;29.92;18.45;;;1.90;99.90;;;;;;5014444;28;20208;-76
2021/01/08 11:16:58;;;;;;;27.40;17.15;;;2.00;99.90;;;;;;5013889;28;20557;-74
2021/01/08 11:19:24;;;;;;;28.42;18.33;;;2.00;99.90;;;;;;5015055;28;20575;-74
2021/01/08 11:21:53;;;;;;;30.53;20.30;;;2.00;99.90;;;;;;5012811;28;20256;-74
2021/01/08 11:24:19;;;;;;;33.28;19.35;;;2.00;99.90;;;;;;5013896;28;20288;-75
2021/01/08 11:26:44;;;;;;;30.77;19.80;;;2.10;99.90;;;;;;5014450;28;20261;-74
2021/01/08 11:29:10;;;;;;;30.60;20.03;;;2.00;99.90;;;;;;5014710;28;20187;-74
2021/01/08 11:31:36;;;;;;;31.00;20.03;;;2.10;99.90;;;;;;5013716;28;20238;-75
2021/01/08 11:34:05;;;;;;;32.83;21.38;;;2.20;99.90;;;;;;5012793;28;20234;-74
2021/01/08 11:36:31;;;;;;;30.65;20.20;;;2.20;99.90;;;;;;5014118;28;20179;-74
2021/01/08 11:38:58;;;;;;;29.08;20.10;;;2.20;99.90;;;;;;5013765;28;20189;-76
2021/01/08 11:41:23;;;;;;;27.63;19.20;;;2.20;99.90;;;;;;5012559;28;20196;-75
2021/01/08 11:43:49;;;;;;;34.37;19.93;;;2.10;99.90;;;;;;5028178;28;20196;-75
2021/01/08 11:46:19;;;;;;;28.67;18.90;;;2.10;99.90;;;;;;5032023;28;20426;-80
2021/01/08 11:48:45;;;;;;;32.92;20.92;;;2.20;99.90;;;;;;5034370;28;20432;-75
2021/01/08 11:51:15;;;;;;;32.33;21.50;;;2.30;99.90;;;;;;5033538;28;20194;-76
2021/01/08 11:53:45;;;;;;;31.92;20.35;;;2.30;99.90;;;;;;5033253;28;20343;-75
2021/01/08 11:56:12;;;;;;;29.80;19.70;;;2.40;99.90;;;;;;5034248;28;20182;-76
2021/01/08 11:58:38;;;;;;;32.20;19.25;;;2.20;99.90;;;;;;5034722;28;20245;-74
2021/01/08 12:01:07;;;;;;;30.30;19.63;;;2.30;99.90;;;;;;5035223;28;20205;-75
2021/01/08 12:03:35;;;;;;;27.98;19.88;;;2.40;99.90;;;;;;5034825;28;20194;-75
2021/01/08 12:06:01;;;;;;;32.53;18.13;;;2.30;99.90;;;;;;5035002;28;20207;-76
2021/01/08 12:08:27;;;;;;;28.20;18.30;;;2.30;99.90;;;;;;5035081;28;20176;-77
2021/01/08 12:10:53;;;;;;;17.70;11.80;;;2.30;99.90;;;;;;5034901;28;20513;-77
2021/01/08 12:13:18;;;;;;;27.15;19.42;;;2.30;99.90;;;;;;5034917;28;20182;-76
2021/01/08 12:15:44;;;;;;;23.10;12.10;;;2.20;99.90;;;;;;5034499;28;20208;-75
2021/01/08 12:18:11;;;;;;;32.63;20.00;;;2.20;99.90;;;;;;5034815;28;20198;-76
2021/01/08 12:20:37;;;;;;;31.30;19.25;;;2.40;99.90;;;;;;5034622;28;20281;-75
2021/01/08 12:23:04;;;;;;;27.17;18.38;;;2.30;99.90;;;;;;5034742;28;20168;-75
2021/01/08 12:25:34;;;;;;;28.63;19.17;;;2.40;99.90;;;;;;5034442;28;20191;-74
2021/01/08 12:28:02;;;;;;;30.58;19.88;;;2.30;99.90;;;;;;5033905;28;20220;-74
2021/01/08 12:30:28;;;;;;;32.13;20.25;;;2.40;99.90;;;;;;5034983;28;20565;-75
2021/01/08 12:32:53;;;;;;;31.03;20.60;;;2.50;99.90;;;;;;5033790;28;20179;-74
2021/01/08 12:35:19;;;;;;;29.60;20.17;;;2.40;99.90;;;;;;5034224;28;20205;-75
2021/01/08 12:37:45;;;;;;;33.57;20.27;;;2.40;99.90;;;;;;5034477;28;20185;-75
2021/01/08 12:40:11;;;;;;;28.63;18.97;;;2.50;99.90;;;;;;5034386;28;20461;-75
2021/01/08 12:42:37;;;;;;;29.38;19.20;;;2.40;99.90;;;;;;5033441;28;20291;-75